Latest Weather Observations for Point Wilson

IDV60901

Issued at 5:11 pm EST Tuesday 26 September 2017 (issued every 10 minutes, with the page automatically refreshed every 10 minutes)

About weather observations | Map of Melbourne area stations | Latest observations for Melbourne area | Other Formats
Station Details ID: 087166 Name: POINT WILSON Lat: -38.10 Lon: 144.54 Height: 18.0 m
Data from the previous 72 hours. | See also: Recent months for locations in Victoria
Date/Time
EST
Temp
°C
App
Temp
°C
Dew
Point
°C
Rel
Hum
%
Delta-T
°C
Wind Press
QNH
hPa
Press
MSL
hPa
Rain since
9am
mm
Dir  Spd
km/h
Gust
km/h
Spd
kts
Gust
kts
26/05:00pm - - - - - E 20 22 11 12 - - -
26/04:30pm - - - - - E 24 26 13 14 - - -
26/04:00pm - - - - - E 22 24 12 13 - - -
26/03:30pm - - - - - E 22 26 12 14 - - -
26/03:00pm - - - - - E 7 9 4 5 - - -
26/02:30pm - - - - - E 7 11 4 6 - - -
26/02:00pm - - - - - ESE 9 13 5 7 - - -
26/01:30pm - - - - - SE 9 9 5 5 - - -
26/01:00pm - - - - - CALM 0 6 0 3 - - -
26/12:30pm - - - - - SW 7 9 4 5 - - -
26/12:00pm - - - - - CALM 0 0 0 0 - - -
26/11:30am - - - - - CALM 0 6 0 3 - - -
26/11:00am - - - - - WSW 2 9 1 5 - - -
26/10:30am - - - - - WSW 13 15 7 8 - - -
26/10:00am - - - - - WSW 13 19 7 10 - - -
26/09:30am - - - - - WSW 15 19 8 10 - - -
26/09:00am - - - - - WSW 15 20 8 11 - - -
26/08:30am - - - - - W 17 20 9 11 - - -
26/08:00am - - - - - WNW 13 17 7 9 - - -
26/07:30am - - - - - W 17 19 9 10 - - -
26/07:00am - - - - - WNW 15 17 8 9 - - -
26/06:30am - - - - - W 20 26 11 14 - - -
26/06:00am - - - - - W 19 24 10 13 - - -
26/05:30am - - - - - WNW 17 20 9 11 - - -
26/05:00am - - - - - WNW 20 24 11 13 - - -
26/04:30am - - - - - WNW 20 24 11 13 - - -
26/04:00am - - - - - WNW 15 20 8 11 - - -
26/03:30am - - - - - WNW 15 19 8 10 - - -
26/03:00am - - - - - WNW 19 20 10 11 - - -
26/02:30am - - - - - WNW 17 19 9 10 - - -
26/02:00am - - - - - WNW 20 24 11 13 - - -
26/01:30am - - - - - W 20 26 11 14 - - -
26/01:00am - - - - - WNW 17 20 9 11 - - -
26/12:30am - - - - - WNW 17 20 9 11 - - -
26/12:00am - - - - - WNW 17 20 9 11 - - -
 
Date/Time
EST
Temp
°C
App
Temp
°C
Dew
Point
°C
Rel
Hum
%
Delta-T
°C
Wind Press
QNH
hPa
Press
MSL
hPa
Rain since
9am
mm
Dir  Spd
km/h
Gust
km/h
Spd
kts
Gust
kts
25/11:30pm - - - - - WNW 11 15 6 8 - - -
25/11:00pm - - - - - WNW 15 19 8 10 - - -
25/10:30pm - - - - - NW 15 19 8 10 - - -
25/10:00pm - - - - - NW 20 24 11 13 - - -
25/09:30pm - - - - - W 19 24 10 13 - - -
25/09:00pm - - - - - WSW 20 24 11 13 - - -
25/08:30pm - - - - - WSW 28 32 15 17 - - -
25/08:00pm - - - - - WSW 28 32 15 17 - - -
25/07:30pm - - - - - WSW 26 32 14 17 - - -
25/07:00pm - - - - - WSW 30 35 16 19 - - -
25/06:30pm - - - - - WSW 32 37 17 20 - - -
25/06:00pm - - - - - WSW 30 37 16 20 - - -
25/05:30pm - - - - - WSW 24 30 13 16 - - -
25/05:00pm - - - - - WSW 28 32 15 17 - - -
25/04:30pm - - - - - WSW 28 32 15 17 - - -
25/04:00pm - - - - - WSW 26 35 14 19 - - -
25/03:30pm - - - - - SSW 26 30 14 16 - - -
25/03:00pm - - - - - SSW 24 39 13 21 - - -
25/02:30pm - - - - - SSW 32 48 17 26 - - -
25/02:00pm - - - - - WSW 33 39 18 21 - - -
25/01:30pm - - - - - WSW 35 57 19 31 - - -
25/01:00pm - - - - - WSW 37 46 20 25 - - -
25/12:54pm - - - - - WSW 28 46 15 25 - - -
25/12:30pm - - - - - WSW 26 30 14 16 - - -
25/12:00pm - - - - - WSW 37 52 20 28 - - -
25/11:54am - - - - - W 28 52 15 28 - - -
25/11:30am - - - - - W 26 32 14 17 - - -
25/11:00am - - - - - W 30 33 16 18 - - -
25/10:30am - - - - - W 26 35 14 19 - - -
25/10:00am - - - - - W 24 33 13 18 - - -
25/09:30am - - - - - W 22 28 12 15 - - -
25/09:00am - - - - - W 24 30 13 16 - - -
25/08:30am - - - - - W 22 28 12 15 - - -
25/08:00am - - - - - W 24 30 13 16 - - -
25/07:30am - - - - - W 26 30 14 16 - - -
25/07:00am - - - - - W 26 30 14 16 - - -
25/06:30am - - - - - W 28 32 15 17 - - -
25/06:00am - - - - - W 26 30 14 16 - - -
25/05:30am - - - - - WNW 17 22 9 12 - - -
25/05:00am - - - - - W 30 35 16 19 - - -
25/04:30am - - - - - W 32 35 17 19 - - -
25/04:00am - - - - - W 32 39 17 21 - - -
25/03:30am - - - - - W 33 41 18 22 - - -
25/03:00am - - - - - WNW 35 43 19 23 - - -
25/02:30am - - - - - WNW 35 43 19 23 - - -
25/02:00am - - - - - WNW 35 43 19 23 - - -
25/01:30am - - - - - WNW 33 39 18 21 - - -
25/01:00am - - - - - WNW 32 41 17 22 - - -
25/12:30am - - - - - WNW 37 54 20 29 - - -
25/12:00am - - - - - WNW 41 54 22 29 - - -
 
Date/Time
EST
Temp
°C
App
Temp
°C
Dew
Point
°C
Rel
Hum
%
Delta-T
°C
Wind Press
QNH
hPa
Press
MSL
hPa
Rain since
9am
mm
Dir  Spd
km/h
Gust
km/h
Spd
kts
Gust
kts
24/11:35pm - - - - - WNW 48 67 26 36 - - -
24/11:30pm - - - - - WNW 46 61 25 33 - - -
24/11:00pm - - - - - WNW 50 61 27 33 - - -
24/10:42pm - - - - - WNW 44 63 24 34 - - -
24/10:30pm - - - - - WNW 43 54 23 29 - - -
24/10:02pm - - - - - WNW 52 70 28 38 - - -
24/10:00pm - - - - - WNW 54 70 29 38 - - -
24/09:57pm - - - - - WNW 52 70 28 38 - - -
24/09:30pm - - - - - WNW 44 57 24 31 - - -
24/09:00pm - - - - - NW 41 54 22 29 - - -
24/08:30pm - - - - - NW 44 54 24 29 - - -
24/08:00pm - - - - - NW 48 59 26 32 - - -
24/07:30pm - - - - - NW 50 70 27 38 - - -
24/07:26pm - - - - - NW 46 65 25 35 - - -
24/07:00pm - - - - - NW 46 61 25 33 - - -
24/06:40pm - - - - - NW 48 69 26 37 - - -
24/06:30pm - - - - - NW 44 57 24 31 - - -
24/06:12pm - - - - - NW 46 67 25 36 - - -
24/06:00pm - - - - - NW 44 56 24 30 - - -
24/05:53pm - - - - - NW 52 70 28 38 - - -
24/05:30pm - - - - - WNW 52 65 28 35 - - -
24/05:00pm - - - - - NW 54 76 29 41 - - -
24/04:30pm - - - - - NW 52 70 28 38 - - -
24/04:18pm - - - - - NW 46 70 25 38 - - -
24/04:11pm - - - - - WNW 32 52 17 28 - - -
24/04:00pm - - - - - WNW 32 44 17 24 - - -
24/03:44pm - - - - - WNW 57 72 31 39 - - -
24/03:35pm - - - - - NW 54 72 29 39 - - -
24/03:30pm - - - - - NNW 48 63 26 34 - - -
24/03:17pm - - - - - NW 43 61 23 33 - - -
24/03:00pm - - - - - NW 48 63 26 34 - - -
24/02:31pm - - - - - NNW 52 70 28 38 - - -
24/02:30pm - - - - - NNW 54 70 29 38 - - -
24/02:06pm - - - - - NW 50 69 27 37 - - -
24/02:00pm - - - - - NW 54 65 29 35 - - -
24/01:53pm - - - - - NNW 43 65 23 35 - - -
24/01:30pm - - - - - NNW 43 52 23 28 - - -
24/01:11pm - - - - - NW 43 63 23 34 - - -
24/01:06pm - - - - - WNW 35 59 19 32 - - -
24/01:00pm - - - - - NW 41 54 22 29 - - -
24/12:33pm - - - - - NW 41 59 22 32 - - -
24/12:30pm - - - - - NW 43 59 23 32 - - -
24/12:00pm - - - - - NW 46 63 25 34 - - -
24/11:30am - - - - - NW 41 56 22 30 - - -
24/11:00am - - - - - NW 41 61 22 33 - - -
24/10:35am - - - - - NW 43 61 23 33 - - -
24/10:30am - - - - - NW 46 61 25 33 - - -
24/10:00am - - - - - NW 39 50 21 27 - - -
24/09:30am - - - - - NW 41 54 22 29 - - -
24/09:05am - - - - - NW 35 54 19 29 - - -
24/09:00am - - - - - NW 37 48 20 26 - - -
24/08:52am - - - - - NW 37 46 20 25 - - -
24/08:30am - - - - - N 24 30 13 16 - - -
24/08:00am - - - - - WNW 19 22 10 12 - - -
24/07:30am - - - - - W 35 44 19 24 - - -
24/07:00am - - - - - WNW 43 61 23 33 - - -
24/06:54am - - - - - NNW 26 57 14 31 - - -
24/06:30am - - - - - NNE 22 26 12 14 - - -
24/06:00am - - - - - NNE 24 28 13 15 - - -
24/05:30am - - - - - NNE 20 26 11 14 - - -
24/05:00am - - - - - NNE 20 24 11 13 - - -
24/04:30am - - - - - NNW 24 28 13 15 - - -
24/04:00am - - - - - NW 28 32 15 17 - - -
24/03:30am - - - - - NW 32 39 17 21 - - -
24/03:00am - - - - - NW 26 32 14 17 - - -
24/02:30am - - - - - WNW 28 35 15 19 - - -
24/02:00am - - - - - WNW 30 41 16 22 - - -
24/01:30am - - - - - WNW 30 35 16 19 - - -
24/01:00am - - - - - WNW 30 37 16 20 - - -
24/12:30am - - - - - WNW 22 28 12 15 - - -
24/12:00am - - - - - W 30 37 16 20 - - -
 
Date/Time
EST
Temp
°C
App
Temp
°C
Dew
Point
°C
Rel
Hum
%
Delta-T
°C
Wind Press
QNH
hPa
Press
MSL
hPa
Rain since
9am
mm
Dir  Spd
km/h
Gust
km/h
Spd
kts
Gust
kts
23/11:30pm - - - - - W 37 48 20 26 - - -
23/11:00pm - - - - - W 41 50 22 27 - - -
23/10:30pm - - - - - WNW 33 52 18 28 - - -
23/10:00pm - - - - - WNW 24 30 13 16 - - -
23/09:30pm - - - - - WNW 28 33 15 18 - - -
23/09:00pm - - - - - WNW 37 44 20 24 - - -
23/08:30pm - - - - - WNW 37 46 20 25 - - -
23/08:00pm - - - - - WNW 32 41 17 22 - - -
23/07:30pm - - - - - WNW 32 41 17 22 - - -
23/07:00pm - - - - - WSW 33 37 18 20 - - -
23/06:30pm - - - - - WSW 37 46 20 25 - - -
23/06:00pm - - - - - WSW 37 50 20 27 - - -
23/05:30pm - - - - - WSW 44 63 24 34 - - -
23/05:27pm - - - - - WSW 39 57 21 31 - - -

Latest Capital City Observations: Canberra | Sydney | Melbourne | Brisbane | Adelaide | Perth | Hobart | Darwin

Other Formats:

Comma delimited format used in spreadsheet applications
http://www.bom.gov.au/fwo/IDV60901/IDV60901.94847.axf

JavaScript Object Notation format (JSON) in row-major order
http://www.bom.gov.au/fwo/IDV60901/IDV60901.94847.json